Time;durP1;ratioP1;P1;durP2;ratioP2;P2;SDS_P1;SDS_P2;PMS_P1;PMS_P2;Temp;Humidity;BMP_temperature;BMP_pressure;BME280_temperature;BME280_humidity;BME280_pressure;Samples;Min_cycle;Max_cycle;Signal;HPM_P1;HPM_P2
2023/07/23 00:01:03;;;;;;;9.30;7.30;;;;;;;15.58;100.00;100740.44;5038918;28;20108;-64
2023/07/23 00:03:29;;;;;;;8.35;6.28;;;;;;;15.52;100.00;100724.78;5041624;28;20483;-63
2023/07/23 00:05:54;;;;;;;8.65;6.15;;;;;;;15.45;100.00;100726.19;5035955;28;20031;-63
2023/07/23 00:08:19;;;;;;;11.57;7.18;;;;;;;15.32;100.00;100723.56;5031844;28;20472;-63
2023/07/23 00:10:45;;;;;;;7.45;6.40;;;;;;;15.32;100.00;100720.03;5036077;28;20028;-64
2023/07/23 00:13:10;;;;;;;8.77;6.32;;;;;;;15.25;100.00;100710.69;5039342;28;20053;-63
2023/07/23 00:15:36;;;;;;;8.13;6.13;;;;;;;15.24;100.00;100709.84;5034938;28;20028;-62
2023/07/23 00:18:02;;;;;;;6.53;5.93;;;;;;;15.24;100.00;100698.28;5023469;28;20037;-64
2023/07/23 00:20:27;;;;;;;8.75;6.53;;;;;;;15.27;100.00;100704.28;5022861;28;20143;-62
2023/07/23 00:22:52;;;;;;;8.95;6.25;;;;;;;15.23;100.00;100707.28;5030278;28;20449;-64
2023/07/23 00:25:18;;;;;;;10.52;6.97;;;;;;;15.25;100.00;100699.97;5023603;28;20104;-63
2023/07/23 00:27:43;;;;;;;7.20;6.50;;;;;;;15.29;100.00;100693.44;5027870;28;20033;-63
2023/07/23 00:30:09;;;;;;;8.38;6.65;;;;;;;15.30;100.00;100687.09;5030027;28;20064;-64
2023/07/23 00:32:34;;;;;;;9.88;6.80;;;;;;;15.22;100.00;100684.13;5029951;28;20024;-62
2023/07/23 00:35:00;;;;;;;7.72;6.70;;;;;;;15.28;100.00;100681.84;5022511;28;20541;-62
2023/07/23 00:37:27;;;;;;;7.70;5.93;;;;;;;15.30;100.00;100677.25;5021582;28;20504;-63
2023/07/23 00:39:53;;;;;;;7.03;6.32;;;;;;;15.27;100.00;100671.25;5034056;28;20400;-64
2023/07/23 00:42:18;;;;;;;8.23;6.45;;;;;;;15.31;100.00;100672.72;5026376;28;20032;-64
2023/07/23 00:44:44;;;;;;;9.88;6.70;;;;;;;15.28;100.00;100663.06;5033177;28;20487;-63
2023/07/23 00:47:09;;;;;;;7.85;7.05;;;;;;;15.28;100.00;100651.50;5028245;28;20063;-63
2023/07/23 00:49:34;;;;;;;9.10;7.13;;;;;;;15.27;100.00;100644.44;5034973;28;20509;-62
2023/07/23 00:52:03;;;;;;;9.43;6.80;;;;;;;15.31;100.00;100648.59;5036367;28;20033;-63
2023/07/23 00:54:28;;;;;;;9.38;7.07;;;;;;;15.25;100.00;100638.31;5034616;28;20051;-64
2023/07/23 00:56:54;;;;;;;8.57;7.30;;;;;;;15.27;100.00;100633.72;5039199;28;20091;-62
2023/07/23 00:59:19;;;;;;;9.10;6.97;;;;;;;15.31;100.00;100635.19;5037922;28;20024;-63
2023/07/23 01:01:45;;;;;;;8.80;7.35;;;;;;;15.31;100.00;100628.00;5036904;28;20408;-63
2023/07/23 01:04:10;;;;;;;9.10;7.57;;;;;;;15.27;100.00;100615.78;5033861;28;20056;-63
2023/07/23 01:06:39;;;;;;;9.00;7.80;;;;;;;15.30;100.00;100622.72;5037733;28;20305;-63
2023/07/23 01:09:05;;;;;;;7.70;6.97;;;;;;;15.26;100.00;100619.44;5030448;28;20033;-63
2023/07/23 01:11:32;;;;;;;9.57;7.82;;;;;;;15.23;100.00;100608.09;5036433;28;20029;-64
2023/07/23 01:14:02;;;;;;;7.63;6.80;;;;;;;15.25;100.00;100603.44;5033649;28;20554;-64
2023/07/23 01:16:28;;;;;;;10.32;7.97;;;;;;;15.28;100.00;100608.59;5030637;28;20024;-63
2023/07/23 01:18:54;;;;;;;7.90;6.93;;;;;;;15.27;100.00;100594.34;5039203;28;20025;-63
2023/07/23 01:21:19;;;;;;;8.27;7.43;;;;;;;15.27;100.00;100593.50;5043138;28;20301;-63
2023/07/23 01:23:45;;;;;;;8.45;7.28;;;;;;;15.26;100.00;100587.28;5022247;28;20030;-64
2023/07/23 01:26:10;;;;;;;12.40;8.23;;;;;;;15.22;100.00;100583.09;5023425;28;20109;-64
2023/07/23 01:28:36;;;;;;;9.45;7.72;;;;;;;15.20;100.00;100574.31;5023119;28;20100;-64
2023/07/23 01:31:05;;;;;;;11.52;8.35;;;;;;;15.22;100.00;100577.75;5022223;28;20095;-63
2023/07/23 01:33:34;;;;;;;8.52;7.72;;;;;;;15.23;100.00;100573.25;5026357;28;20075;-64
2023/07/23 01:36:01;;;;;;;10.05;7.85;;;;;;;15.18;100.00;100576.25;5038311;28;20029;-64
2023/07/23 01:38:27;;;;;;;10.00;8.18;;;;;;;15.17;100.00;100564.69;5036288;28;20644;-63
2023/07/23 01:40:57;;;;;;;9.45;8.50;;;;;;;15.19;100.00;100560.06;5038227;28;20029;-63
2023/07/23 01:43:23;;;;;;;9.48;8.10;;;;;;;15.19;100.00;100557.38;5022678;28;20037;-63
2023/07/23 01:45:49;;;;;;;8.73;7.85;;;;;;;15.23;100.00;100557.16;5031491;28;20514;-63
2023/07/23 01:48:15;;;;;;;9.50;8.05;;;;;;;15.20;100.00;100550.19;5035641;28;20045;-63
2023/07/23 01:50:41;;;;;;;9.10;7.97;;;;;;;15.26;100.00;100544.38;5028389;28;20483;-64
2023/07/23 01:53:07;;;;;;;9.50;8.27;;;;;;;15.26;100.00;100552.41;5038499;28;20035;-63
2023/07/23 01:55:32;;;;;;;10.05;8.18;;;;;;;15.28;100.00;100541.56;5038466;28;20013;-63
2023/07/23 01:57:58;;;;;;;9.18;7.65;;;;;;;15.27;100.00;100538.03;5039342;28;20039;-63
2023/07/23 02:00:23;;;;;;;8.35;7.20;;;;;;;15.29;100.00;100533.41;5035096;28;20029;-64
2023/07/23 02:02:49;;;;;;;8.60;7.35;;;;;;;15.34;100.00;100523.19;5032603;28;20383;-64
2023/07/23 02:05:14;;;;;;;9.05;7.25;;;;;;;15.34;100.00;100527.69;5030713;28;20037;-63
2023/07/23 02:07:40;;;;;;;8.48;6.82;;;;;;;15.34;100.00;100533.94;5029849;28;20171;-64
2023/07/23 02:10:06;;;;;;;7.38;6.45;;;;;;;15.34;99.74;100522.31;5040320;28;20097;-63
2023/07/23 02:12:35;;;;;;;7.25;6.50;;;;;;;15.39;98.89;100521.03;5030897;28;20033;-64
2023/07/23 02:15:01;;;;;;;8.20;6.25;;;;;;;15.44;98.79;100509.94;5042089;28;20510;-64
2023/07/23 02:17:26;;;;;;;8.40;6.40;;;;;;;15.45;98.20;100504.44;5043637;28;20033;-64
2023/07/23 02:19:52;;;;;;;9.48;7.10;;;;;;;15.42;97.85;100510.06;5029358;28;20024;-62
2023/07/23 02:22:17;;;;;;;8.15;6.57;;;;;;;15.47;99.48;100498.97;5030006;28;20480;-62
2023/07/23 02:24:43;;;;;;;8.20;6.80;;;;;;;15.48;96.92;100502.50;5034898;28;20549;-63
2023/07/23 02:27:08;;;;;;;8.05;6.38;;;;;;;15.46;96.62;100497.25;5036778;28;20029;-63
2023/07/23 02:29:34;;;;;;;9.07;6.82;;;;;;;15.48;96.15;100499.84;5025368;28;20026;-63
2023/07/23 02:31:59;;;;;;;8.73;6.40;;;;;;;15.49;96.28;100490.81;5025684;28;20029;-63
2023/07/23 02:34:24;;;;;;;10.18;6.75;;;;;;;15.52;96.01;100490.56;5024997;28;20045;-63
2023/07/23 02:36:50;;;;;;;8.50;6.90;;;;;;;15.54;95.51;100493.97;5031614;28;20565;-64
2023/07/23 02:39:15;;;;;;;11.68;6.55;;;;;;;15.53;96.25;100486.91;5032473;28;20268;-63
2023/07/23 02:41:41;;;;;;;13.05;7.47;;;;;;;15.54;96.01;100483.25;5040398;28;20399;-62
2023/07/23 02:44:06;;;;;;;7.80;6.63;;;;;;;15.54;95.64;100484.09;5032947;28;20132;-63
2023/07/23 02:46:32;;;;;;;9.77;6.72;;;;;;;15.51;94.56;100479.00;5030169;28;20024;-63
2023/07/23 02:48:57;;;;;;;7.70;6.25;;;;;;;15.51;94.13;100480.78;5036509;28;20463;-63
2023/07/23 02:51:22;;;;;;;7.53;6.45;;;;;;;15.50;94.04;100479.09;5036751;28;20029;-64
2023/07/23 02:53:51;;;;;;;7.55;6.07;;;;;;;15.49;94.03;100480.94;5033781;28;20241;-63
2023/07/23 02:56:17;;;;;;;8.88;6.78;;;;;;;15.49;93.97;100472.88;5035216;28;20082;-63
2023/07/23 02:58:42;;;;;;;8.90;6.75;;;;;;;15.45;93.37;100469.56;5037571;28;20025;-63
2023/07/23 03:01:09;;;;;;;9.15;6.43;;;;;;;15.50;93.61;100477.25;5041927;28;20335;-63
2023/07/23 03:03:35;;;;;;;7.20;6.05;;;;;;;15.49;93.17;100464.84;5029428;28;20026;-63
2023/07/23 03:06:02;;;;;;;8.45;6.32;;;;;;;15.46;92.69;100470.44;5024782;28;20037;-64
2023/07/23 03:08:27;;;;;;;8.48;6.18;;;;;;;15.49;93.32;100474.72;5036313;28;20588;-63
2023/07/23 03:10:53;;;;;;;8.02;5.90;;;;;;;15.48;93.14;100465.81;5032054;28;20119;-62
2023/07/23 03:13:18;;;;;;;8.52;6.25;;;;;;;15.50;92.67;100468.38;5040167;28;20099;-62
2023/07/23 03:15:44;;;;;;;7.88;5.70;;;;;;;15.48;91.69;100470.34;5038763;28;20075;-63
2023/07/23 03:18:09;;;;;;;7.78;5.78;;;;;;;15.49;91.91;100466.66;5033269;28;20029;-63
2023/07/23 03:20:34;;;;;;;6.80;5.68;;;;;;;15.45;90.83;100461.53;5033683;28;20472;-64
2023/07/23 03:23:00;;;;;;;8.07;6.13;;;;;;;15.52;90.79;100466.44;5034252;28;20020;-63
2023/07/23 03:25:25;;;;;;;7.22;6.38;;;;;;;15.51;90.18;100459.34;5029117;28;20485;-63
2023/07/23 03:27:50;;;;;;;9.70;6.65;;;;;;;15.50;90.17;100466.53;5028155;28;20041;-63
2023/07/23 03:30:16;;;;;;;9.15;6.72;;;;;;;15.51;89.48;100465.59;5031113;28;20075;-62
2023/07/23 03:32:41;;;;;;;9.15;6.55;;;;;;;15.51;88.67;100460.22;5039168;28;20115;-63
2023/07/23 03:35:07;;;;;;;7.35;6.00;;;;;;;15.54;88.42;100465.31;5054435;28;20431;-63
2023/07/23 03:37:32;;;;;;;6.78;5.80;;;;;;;15.58;86.96;100457.91;5035806;28;20028;-63
2023/07/23 03:39:58;;;;;;;6.65;5.82;;;;;;;15.61;86.42;100466.56;5031703;28;20033;-64
2023/07/23 03:42:26;;;;;;;6.50;5.43;;;;;;;15.60;86.95;100464.03;5038446;28;20039;-63
2023/07/23 03:44:51;;;;;;;9.40;5.78;;;;;;;15.62;86.48;100470.09;5032935;28;20450;-63
2023/07/23 03:47:20;;;;;;;7.00;5.57;;;;;;;15.64;85.51;100460.13;5039044;28;20052;-63
2023/07/23 03:49:47;;;;;;;9.48;5.10;;;;;;;15.68;84.41;100467.00;5031755;28;20044;-63
2023/07/23 03:52:13;;;;;;;6.05;5.00;;;;;;;15.71;84.02;100456.00;5034649;28;20029;-63
2023/07/23 03:54:38;;;;;;;5.30;4.80;;;;;;;15.72;83.67;100462.22;5031593;28;20044;-63
2023/07/23 03:57:04;;;;;;;6.00;4.28;;;;;;;15.71;83.21;100455.16;5036552;28;20318;-64
2023/07/23 03:59:35;;;;;;;5.68;4.57;;;;;;;15.74;82.57;100454.91;5040418;28;20036;-64
2023/07/23 04:02:02;;;;;;;5.88;4.65;;;;;;;15.74;82.83;100455.75;5029924;28;20028;-64
2023/07/23 04:04:27;;;;;;;6.03;4.75;;;;;;;15.76;82.71;100458.31;5041384;28;20029;-63
2023/07/23 04:06:52;;;;;;;7.55;4.75;;;;;;;15.78;82.23;100462.59;5039386;28;20048;-64
2023/07/23 04:09:19;;;;;;;6.72;4.47;;;;;;;15.75;82.77;100454.78;5040023;28;20021;-63
2023/07/23 04:11:44;;;;;;;8.63;5.13;;;;;;;15.75;82.73;100454.78;5027312;28;20140;-63
2023/07/23 04:14:10;;;;;;;6.78;5.00;;;;;;;15.74;82.20;100458.44;5028484;28;20038;-63
2023/07/23 04:16:35;;;;;;;5.07;4.57;;;;;;;15.73;82.05;100453.22;5025238;28;20507;-62
2023/07/23 04:19:01;;;;;;;7.82;4.97;;;;;;;15.75;81.41;100456.63;5031068;28;20068;-63
2023/07/23 04:21:26;;;;;;;5.65;4.32;;;;;;;15.79;81.26;100453.56;5030316;28;20083;-62
2023/07/23 04:23:55;;;;;;;5.13;4.63;;;;;;;15.80;80.82;100460.66;5037722;28;20494;-62
2023/07/23 04:26:21;;;;;;;7.70;4.55;;;;;;;15.85;80.44;100458.47;5033223;28;20294;-63
2023/07/23 04:28:47;;;;;;;5.82;4.10;;;;;;;15.85;80.90;100455.78;5026527;28;20431;-63
2023/07/23 04:31:13;;;;;;;5.78;4.40;;;;;;;15.90;79.27;100456.25;5028528;28;20380;-63
2023/07/23 04:33:39;;;;;;;5.53;4.60;;;;;;;15.96;80.02;100454.91;5037761;28;20037;-63
2023/07/23 04:36:06;;;;;;;5.00;4.50;;;;;;;15.99;79.10;100457.34;5038539;28;20021;-64
2023/07/23 04:38:32;;;;;;;6.22;4.50;;;;;;;16.01;79.20;100454.53;5033126;28;20041;-62
2023/07/23 04:40:57;;;;;;;5.55;4.35;;;;;;;16.07;78.88;100464.81;5024785;28;20066;-63
2023/07/23 04:43:23;;;;;;;4.65;4.03;;;;;;;16.08;78.22;100458.44;5033415;28;20027;-62
2023/07/23 04:45:48;;;;;;;6.32;4.65;;;;;;;16.12;78.21;100459.91;5036119;28;20025;-63
2023/07/23 04:48:14;;;;;;;5.63;4.40;;;;;;;16.15;77.31;100455.16;5040531;28;20048;-62
2023/07/23 04:50:40;;;;;;;6.25;4.13;;;;;;;16.18;76.80;100456.75;5030488;28;20045;-63
2023/07/23 04:53:07;;;;;;;5.90;3.85;;;;;;;16.22;76.58;100450.16;5035649;28;20505;-62
2023/07/23 04:55:32;;;;;;;5.70;3.50;;;;;;;16.23;76.85;100457.22;5042759;28;20035;-63
2023/07/23 04:57:58;;;;;;;4.50;3.78;;;;;;;16.26;76.78;100451.63;5040835;28;20275;-63
2023/07/23 05:00:23;;;;;;;6.03;4.13;;;;;;;16.28;75.90;100451.50;5028144;28;20124;-63
2023/07/23 05:02:48;;;;;;;6.93;4.30;;;;;;;16.29;76.54;100450.50;5034850;28;20348;-63
2023/07/23 05:05:14;;;;;;;5.30;4.03;;;;;;;16.31;76.85;100441.34;5027121;28;20025;-62
2023/07/23 05:07:40;;;;;;;5.45;3.83;;;;;;;16.35;76.09;100447.34;5041300;28;20546;-63
2023/07/23 05:10:06;;;;;;;5.72;4.03;;;;;;;16.38;76.21;100447.91;5035331;28;20041;-63
2023/07/23 05:12:32;;;;;;;6.22;4.30;;;;;;;16.40;76.92;100445.97;5039050;28;20274;-63
2023/07/23 05:15:12;;;;;;;6.50;4.05;;;;;;;16.34;78.13;100446.44;5026970;28;20158;-63
2023/07/23 05:17:38;;;;;;;6.18;3.75;;;;;;;16.29;77.62;100450.50;5031103;28;20032;-63
2023/07/23 05:20:07;;;;;;;6.47;4.18;;;;;;;16.30;77.73;100462.94;5032193;28;20472;-63
2023/07/23 05:22:36;;;;;;;8.70;4.20;;;;;;;16.30;78.15;100461.13;5045411;28;20031;-64
2023/07/23 05:25:03;;;;;;;4.97;4.03;;;;;;;16.26;79.66;100451.63;5027369;28;20771;-64
2023/07/23 05:27:28;;;;;;;5.25;4.28;;;;;;;16.21;79.43;100464.53;5035813;28;20026;-63
2023/07/23 05:29:54;;;;;;;6.72;4.10;;;;;;;16.17;79.66;100460.41;5022799;28;20052;-64
2023/07/23 05:32:19;;;;;;;5.32;3.70;;;;;;;16.09;80.10;100454.78;5031581;28;20584;-63
2023/07/23 05:34:44;;;;;;;4.85;4.03;;;;;;;15.76;83.63;100456.50;5033533;28;20542;-63
2023/07/23 05:37:10;;;;;;;5.20;4.47;;;;;;;15.54;84.34;100457.28;5036734;28;20392;-64
2023/07/23 05:39:35;;;;;;;7.05;4.15;;;;;;;15.43;85.78;100457.28;5022137;28;20059;-63
2023/07/23 05:42:04;;;;;;;6.63;4.35;;;;;;;15.34;86.48;100455.28;5029317;28;20029;-64
2023/07/23 05:44:31;;;;;;;5.82;3.65;;;;;;;15.34;86.71;100456.16;5035306;28;20115;-63
2023/07/23 05:46:56;;;;;;;4.15;3.72;;;;;;;15.44;86.28;100456.28;5033381;28;20269;-63
2023/07/23 05:49:21;;;;;;;4.57;3.83;;;;;;;15.46;87.01;100451.66;5033227;28;20044;-63
2023/07/23 05:51:47;;;;;;;5.53;4.38;;;;;;;15.51;86.94;100449.50;5031414;28;20032;-63
2023/07/23 05:54:13;;;;;;;6.47;4.28;;;;;;;15.54;87.32;100449.22;5030770;28;20036;-62
2023/07/23 05:56:38;;;;;;;4.85;4.32;;;;;;;15.56;87.83;100463.41;5034114;28;20021;-63
2023/07/23 05:59:04;;;;;;;6.38;4.70;;;;;;;15.63;87.33;100450.34;5033666;28;20060;-63
2023/07/23 06:01:30;;;;;;;5.82;3.97;;;;;;;15.67;85.89;100450.03;5029815;28;20071;-63
2023/07/23 06:03:55;;;;;;;6.43;3.90;;;;;;;15.73;85.42;100448.69;5031806;28;20032;-62
2023/07/23 06:06:22;;;;;;;5.45;3.70;;;;;;;15.81;86.31;100442.72;5033159;28;20182;-63
2023/07/23 06:08:48;;;;;;;5.47;4.10;;;;;;;15.85;85.78;100447.72;5035914;28;20051;-63
2023/07/23 06:11:13;;;;;;;5.55;4.10;;;;;;;15.84;87.30;100443.34;5038161;28;20508;-63
2023/07/23 06:13:38;;;;;;;5.20;3.72;;;;;;;15.81;87.20;100451.63;5038950;28;20511;-63
2023/07/23 06:16:04;;;;;;;5.57;3.95;;;;;;;15.78;87.60;100457.22;5040807;28;20238;-63
2023/07/23 06:18:29;;;;;;;4.85;3.80;;;;;;;15.66;88.40;100463.56;5035001;28;20025;-64
2023/07/23 06:20:55;;;;;;;4.65;3.90;;;;;;;15.52;89.94;100458.38;5026502;28;20031;-63
2023/07/23 06:23:20;;;;;;;6.20;4.15;;;;;;;15.45;90.69;100463.38;5040560;28;20346;-63
2023/07/23 06:25:46;;;;;;;5.00;4.50;;;;;;;15.23;93.61;100469.53;5039152;28;20037;-63
2023/07/23 06:28:11;;;;;;;7.68;5.05;;;;;;;15.00;95.69;100471.25;5027378;28;20045;-64
2023/07/23 06:30:37;;;;;;;5.45;4.25;;;;;;;14.90;94.85;100471.09;5044149;28;20451;-62
2023/07/23 06:33:02;;;;;;;6.45;5.13;;;;;;;14.89;95.55;100469.41;5038153;28;20074;-63
2023/07/23 06:35:28;;;;;;;4.88;4.38;;;;;;;15.07;93.94;100466.28;5036320;28;20104;-64
2023/07/23 06:37:53;;;;;;;6.03;4.63;;;;;;;15.23;94.03;100466.00;5041488;28;20049;-64
2023/07/23 06:40:18;;;;;;;8.38;4.90;;;;;;;15.33;92.98;100473.19;5044298;28;20036;-64
2023/07/23 06:42:44;;;;;;;9.20;4.63;;;;;;;15.43;91.79;100474.22;5040323;28;20045;-64
2023/07/23 06:45:10;;;;;;;6.45;4.60;;;;;;;15.50;91.37;100477.25;5037189;28;20036;-63
2023/07/23 06:47:38;;;;;;;4.80;4.25;;;;;;;15.64;90.64;100484.25;5036341;28;20053;-64
2023/07/23 06:50:04;;;;;;;4.75;4.15;;;;;;;15.80;89.76;100476.75;5037740;28;20032;-64
2023/07/23 06:52:29;;;;;;;6.03;4.20;;;;;;;15.92;89.08;100473.09;5034411;28;20025;-64
2023/07/23 06:54:55;;;;;;;5.07;4.28;;;;;;;16.03;88.18;100482.13;5032592;28;20123;-64
2023/07/23 06:57:20;;;;;;;6.40;4.38;;;;;;;16.09;88.05;100481.63;5036229;28;20025;-64
2023/07/23 06:59:46;;;;;;;7.75;4.50;;;;;;;16.14;86.91;100491.06;5041723;28;20478;-64
2023/07/23 07:02:12;;;;;;;6.45;4.78;;;;;;;16.26;86.62;100486.53;5038714;28;20438;-64
2023/07/23 07:04:37;;;;;;;6.03;4.32;;;;;;;16.32;86.24;100482.50;5035562;28;20131;-63
2023/07/23 07:07:03;;;;;;;4.70;4.25;;;;;;;16.33;85.52;100492.25;5033075;28;20423;-64
2023/07/23 07:09:28;;;;;;;5.53;4.50;;;;;;;16.31;84.83;100486.16;5038567;28;20040;-64
2023/07/23 07:11:54;;;;;;;6.30;4.97;;;;;;;16.28;84.77;100487.25;5036805;28;20447;-64
2023/07/23 07:14:20;;;;;;;6.25;4.40;;;;;;;16.30;85.91;100487.13;5041899;28;20120;-63
2023/07/23 07:16:45;;;;;;;5.78;4.78;;;;;;;16.34;85.09;100500.16;5037270;28;20036;-64
2023/07/23 07:19:10;;;;;;;5.95;4.85;;;;;;;16.26;85.69;100497.28;5038511;28;20032;-64
2023/07/23 07:21:36;;;;;;;6.25;4.68;;;;;;;16.14;86.58;100490.19;5039919;28;20045;-64
2023/07/23 07:24:02;;;;;;;5.68;4.53;;;;;;;15.98;89.41;100481.66;5027044;28;20026;-64
2023/07/23 07:26:28;;;;;;;8.13;5.55;;;;;;;15.66;94.04;100496.59;5040296;28;20129;-64
2023/07/23 07:28:53;;;;;;;10.13;5.93;;;;;;;15.30;98.02;100494.03;5034473;28;20443;-63
2023/07/23 07:31:18;;;;;;;7.90;6.03;;;;;;;14.99;100.00;100493.66;5035479;28;20050;-63
2023/07/23 07:33:44;;;;;;;6.82;6.13;;;;;;;14.78;100.00;100488.09;5038647;28;20021;-62
2023/07/23 07:36:10;;;;;;;10.27;6.93;;;;;;;14.64;100.00;100497.16;5037721;28;20451;-63
2023/07/23 07:38:35;;;;;;;7.80;6.95;;;;;;;14.62;100.00;100490.19;5033748;28;20041;-63
2023/07/23 07:41:04;;;;;;;7.75;6.80;;;;;;;14.60;100.00;100497.50;5030078;28;20087;-63
2023/07/23 07:43:29;;;;;;;8.82;7.10;;;;;;;14.64;100.00;100485.59;5039202;28;20028;-62
2023/07/23 07:45:59;;;;;;;7.65;6.43;;;;;;;14.64;100.00;100493.63;5039424;28;20033;-62
2023/07/23 07:48:27;;;;;;;9.32;6.43;;;;;;;14.65;100.00;100498.84;5039521;28;20385;-65
2023/07/23 07:51:01;;;;;;;8.32;6.60;;;;;;;14.78;100.00;100492.59;5034676;28;20330;-62
2023/07/23 07:53:26;;;;;;;9.32;6.22;;;;;;;14.94;100.00;100485.97;5039005;28;20028;-63
2023/07/23 07:55:52;;;;;;;9.13;6.90;;;;;;;14.92;100.00;100492.41;5035631;28;20365;-62
2023/07/23 07:58:24;;;;;;;8.57;6.25;;;;;;;14.81;100.00;100495.91;5038206;28;20031;-63
2023/07/23 08:00:50;;;;;;;7.60;6.30;;;;;;;14.76;100.00;100495.41;5034755;28;20037;-63
2023/07/23 08:03:16;;;;;;;9.88;7.10;;;;;;;14.80;100.00;100488.00;5032773;28;20049;-62
2023/07/23 08:05:41;;;;;;;8.43;6.68;;;;;;;14.80;100.00;100488.00;5032723;28;20083;-63
2023/07/23 08:08:10;;;;;;;9.18;6.32;;;;;;;14.74;100.00;100483.91;5038592;28;20064;-64
2023/07/23 08:10:35;;;;;;;7.90;6.30;;;;;;;14.76;100.00;100490.03;5035926;28;20068;-63
2023/07/23 08:13:02;;;;;;;7.95;6.03;;;;;;;14.68;100.00;100490.59;5041115;28;20056;-64
2023/07/23 08:15:33;;;;;;;9.25;6.60;;;;;;;14.76;100.00;100502.56;5044356;28;20138;-64
2023/07/23 08:17:59;;;;;;;7.95;6.25;;;;;;;14.78;100.00;100493.44;5037547;28;20053;-63
2023/07/23 08:20:27;;;;;;;8.55;6.75;;;;;;;14.86;100.00;100487.53;5034620;28;20060;-63
2023/07/23 08:22:54;;;;;;;6.13;5.40;;;;;;;14.99;100.00;100492.81;5036163;28;20088;-64
2023/07/23 08:25:19;;;;;;;7.57;6.00;;;;;;;15.09;100.00;100496.50;5039937;28;20072;-64
2023/07/23 08:27:49;;;;;;;6.95;5.50;;;;;;;15.13;100.00;100489.94;5031764;28;20071;-63
2023/07/23 08:30:14;;;;;;;6.40;4.63;;;;;;;15.15;100.00;100486.19;5032207;28;20112;-63
2023/07/23 08:32:41;;;;;;;5.10;4.43;;;;;;;15.23;100.00;100507.06;5039900;28;20505;-63
2023/07/23 08:35:07;;;;;;;4.90;4.00;;;;;;;15.27;100.00;100494.28;5036146;28;20415;-63
2023/07/23 08:37:33;;;;;;;4.80;4.32;;;;;;;15.30;100.00;100484.19;5040437;28;20083;-63
2023/07/23 08:39:58;;;;;;;5.40;4.70;;;;;;;15.36;100.00;100483.69;5031770;28;20041;-63
2023/07/23 08:42:48;;;;;;;4.65;3.97;;;;;;;15.46;100.00;100478.47;5029026;28;20017;-63
2023/07/23 08:45:28;;;;;;;4.90;4.13;;;;;;;15.65;100.00;100488.69;5037659;28;20037;-63
2023/07/23 08:48:06;;;;;;;5.50;4.20;;;;;;;15.65;100.00;100491.38;5038364;28;20045;-63
2023/07/23 08:50:32;;;;;;;5.07;4.45;;;;;;;15.52;100.00;100486.06;5043817;28;20033;-63
2023/07/23 08:52:58;;;;;;;6.68;3.72;;;;;;;15.55;100.00;100493.88;5046020;28;20028;-62
2023/07/23 08:55:24;;;;;;;4.18;3.75;;;;;;;15.60;100.00;100486.31;5038874;28;20487;-63
2023/07/23 08:57:49;;;;;;;3.75;3.45;;;;;;;15.63;100.00;100490.59;5041199;28;20071;-63
2023/07/23 09:00:15;;;;;;;5.45;3.50;;;;;;;15.61;100.00;100484.50;5041544;28;20056;-63
2023/07/23 09:02:41;;;;;;;4.40;3.70;;;;;;;15.67;100.00;100492.09;5040905;28;20120;-64
2023/07/23 09:05:07;;;;;;;4.38;3.97;;;;;;;15.67;100.00;100481.34;5040723;28;20502;-64
2023/07/23 09:07:34;;;;;;;4.05;3.65;;;;;;;15.69;100.00;100492.84;5037855;28;20219;-63
2023/07/23 09:10:00;;;;;;;4.20;3.72;;;;;;;15.67;100.00;100490.28;5037683;28;20037;-64
2023/07/23 09:12:27;;;;;;;4.15;3.75;;;;;;;15.75;100.00;100489.66;5035778;28;20098;-63
2023/07/23 09:14:52;;;;;;;4.85;3.67;;;;;;;15.75;100.00;100486.13;5036366;28;20109;-63
2023/07/23 09:17:21;;;;;;;6.28;3.70;;;;;;;15.84;100.00;100499.69;5032767;28;20108;-63
2023/07/23 09:19:47;;;;;;;5.28;3.65;;;;;;;15.85;100.00;100497.88;5036382;28;20033;-64
2023/07/23 09:22:15;;;;;;;5.03;3.70;;;;;;;15.86;100.00;100497.75;5045348;28;20139;-63
2023/07/23 09:24:40;;;;;;;4.45;3.20;;;;;;;15.87;100.00;100503.94;5039813;28;20128;-63
2023/07/23 09:27:10;;;;;;;4.25;3.47;;;;;;;15.73;100.00;100504.19;5038610;28;20128;-63
2023/07/23 09:29:37;;;;;;;3.63;3.33;;;;;;;15.64;100.00;100490.50;5039075;28;20123;-63
2023/07/23 09:32:03;;;;;;;4.07;3.58;;;;;;;15.62;100.00;100491.56;5050111;28;20025;-63
2023/07/23 09:34:28;;;;;;;3.92;3.60;;;;;;;15.59;100.00;100491.78;5035431;28;20556;-63
2023/07/23 09:36:54;;;;;;;3.65;3.35;;;;;;;15.71;100.00;100504.28;5039516;28;20028;-63
2023/07/23 09:39:26;;;;;;;4.05;3.65;;;;;;;15.84;100.00;100504.19;5036865;28;20722;-64
2023/07/23 09:41:51;;;;;;;4.28;3.80;;;;;;;15.92;100.00;100504.44;5036767;28;20025;-63
2023/07/23 09:44:17;;;;;;;4.20;3.80;;;;;;;15.80;100.00;100506.28;5036810;28;20052;-64
2023/07/23 09:46:46;;;;;;;4.50;4.10;;;;;;;15.64;100.00;100501.25;5044144;28;20044;-64
2023/07/23 09:49:13;;;;;;;4.90;4.40;;;;;;;15.64;100.00;100509.28;5039156;28;20567;-64
2023/07/23 09:51:39;;;;;;;4.88;4.47;;;;;;;15.62;100.00;100503.16;5038933;28;20414;-64
2023/07/23 09:54:05;;;;;;;5.20;4.50;;;;;;;15.62;100.00;100507.66;5043367;28;20028;-63
2023/07/23 09:56:34;;;;;;;4.88;4.45;;;;;;;15.67;100.00;100514.44;5042370;28;20025;-63
2023/07/23 09:59:00;;;;;;;5.03;4.53;;;;;;;15.63;100.00;100506.69;5035600;28;20052;-62
2023/07/23 10:01:26;;;;;;;4.70;4.30;;;;;;;15.63;100.00;100507.56;5036701;28;20033;-64
2023/07/23 10:03:53;;;;;;;4.85;4.35;;;;;;;15.56;100.00;100506.31;5040560;28;20029;-63
2023/07/23 10:06:21;;;;;;;4.82;4.13;;;;;;;15.51;100.00;100500.47;5043307;28;20047;-62
2023/07/23 10:08:48;;;;;;;4.32;3.92;;;;;;;15.40;100.00;100509.31;5032700;28;20508;-62
2023/07/23 10:11:15;;;;;;;4.93;4.53;;;;;;;15.35;100.00;100507.97;5042667;28;20032;-62
2023/07/23 10:13:42;;;;;;;4.90;4.40;;;;;;;15.34;100.00;100506.22;5037540;28;20099;-62
2023/07/23 10:16:29;;;;;;;4.70;4.30;;;;;;;15.33;100.00;100523.28;5031016;28;20029;-62
2023/07/23 10:18:56;;;;;;;4.95;4.07;;;;;;;15.26;100.00;100514.88;5024466;28;20175;-62
2023/07/23 10:21:22;;;;;;;4.78;4.38;;;;;;;15.26;100.00;100512.19;5030415;28;20033;-62
2023/07/23 10:23:54;;;;;;;5.05;4.65;;;;;;;15.39;100.00;100520.16;5037530;28;20509;-63
2023/07/23 10:26:26;;;;;;;5.63;4.65;;;;;;;15.42;100.00;100515.44;5037602;28;20339;-62
2023/07/23 10:29:09;;;;;;;4.20;3.90;;;;;;;15.49;100.00;100514.94;5034979;28;20074;-63
2023/07/23 10:31:35;;;;;;;4.90;4.50;;;;;;;15.51;100.00;100516.56;5025346;28;20029;-62
2023/07/23 10:34:25;;;;;;;4.50;4.10;;;;;;;15.60;100.00;100518.53;5030386;28;20021;-63
2023/07/23 10:37:21;;;;;;;4.20;3.80;;;;;;;15.60;100.00;100523.88;5032272;28;20179;-61
2023/07/23 10:39:52;;;;;;;4.60;3.80;;;;;;;15.57;100.00;100515.22;5019663;28;20067;-63
2023/07/23 10:42:41;;;;;;;3.72;3.42;;;;;;;15.58;100.00;100517.75;5032973;28;20029;-63
2023/07/23 10:45:21;;;;;;;4.22;3.92;;;;;;;15.67;100.00;100525.16;5029926;28;20109;-63
2023/07/23 10:47:48;;;;;;;4.90;3.70;;;;;;;15.67;100.00;100518.91;5033507;28;20049;-62
2023/07/23 10:50:16;;;;;;;4.22;3.72;;;;;;;15.69;100.00;100514.31;5034872;28;20491;-63
2023/07/23 10:52:50;;;;;;;4.00;3.60;;;;;;;15.79;100.00;100506.38;5035152;28;20050;-64
2023/07/23 10:55:34;;;;;;;4.13;3.72;;;;;;;15.79;100.00;100519.78;5036294;28;20613;-63
2023/07/23 10:58:09;;;;;;;4.50;4.10;;;;;;;15.77;100.00;100516.41;5030498;28;20074;-63
2023/07/23 11:00:34;;;;;;;3.85;3.40;;;;;;;15.80;100.00;100517.00;5040927;28;20043;-63
2023/07/23 11:03:04;;;;;;;3.63;3.33;;;;;;;15.89;100.00;100513.59;5036016;28;20034;-62
2023/07/23 11:05:39;;;;;;;4.07;3.67;;;;;;;15.97;100.00;100517.50;5040365;28;20083;-63
2023/07/23 11:08:13;;;;;;;4.25;3.85;;;;;;;16.11;100.00;100522.66;5036035;28;20511;-63
2023/07/23 11:10:55;;;;;;;4.60;4.20;;;;;;;16.23;100.00;100521.69;5026002;28;20438;-63
2023/07/23 11:13:22;;;;;;;4.55;4.15;;;;;;;16.35;100.00;100531.44;5036129;28;20240;-63
2023/07/23 11:15:48;;;;;;;4.63;4.20;;;;;;;16.47;100.00;100518.88;5028805;28;20361;-62
2023/07/23 11:18:13;;;;;;;4.38;3.97;;;;;;;16.62;100.00;100525.66;5035899;28;20495;-63
2023/07/23 11:20:49;;;;;;;4.45;4.05;;;;;;;16.80;100.00;100523.34;5030860;28;20434;-64